SCC: VIR: GS qualifying times

Pos Num Class Team Time Gap To 1st Speed --- --- ----- ------------------------------ ---------- ------- ------- ------- 1. 49 GS Marcus Motorsports 2:04.453 94.590 2. ...

Pos Num Class Team                                 Time     Gap  To 1st   Speed
--- --- ----- ------------------------------ ---------- ------- ------- -------
 1.  49 GS    Marcus Motorsports               2:04.453                  94.590
 2.  09 GS    Automatic Racing                 2:04.784   0.331   0.331  94.339
 3.  42 GS    TRG                              2:04.789   0.005   0.336  94.335
 4.   5 GS    Blackforest Motorsports          2:04.801   0.012   0.348  94.326
 5.  79 GS    Kinetic Motorsports              2:04.822   0.021   0.369  94.310
 6.  99 GS    Automatic Racing                 2:04.943   0.121   0.490  94.219
 7.  28 GS    Fall-Line Motorsports            2:04.964   0.021   0.511  94.203
 8.  38 GS    BGB Motorsports                  2:04.986   0.022   0.533  94.187
 9.  55 GS    Hyper Sport                      2:05.096   0.110   0.643  94.104
10.  91 GS    Automatic Racing                 2:05.230   0.134   0.777  94.003
11.  39 GS    TRG                              2:05.406   0.176   0.953  93.871
12.  52 GS    Rehagen Racing                   2:05.407   0.001   0.954  93.870
13.  41 GS    TRG                              2:05.555   0.148   1.102  93.760
14. 137 GS    JBS Motorsports                  2:05.596   0.041   1.143  93.729
15.  97 GS    Turner Motorsport                2:05.698   0.102   1.245  93.653
16.  40 GS    TRG                              2:05.735   0.037   1.282  93.625
17.  80 GS    Kinetic Motorsports              2:05.747   0.012   1.294  93.617
18.  59 GS    Rehagen Racing                   2:05.845   0.098   1.392  93.544
19.  87 GS    Marcus Motorsports               2:05.942   0.097   1.489  93.472
20.  83 GS    BGB Motorsports                  2:06.064   0.122   1.611  93.381
21.  90 GS    Automatic Racing                 2:06.070   0.006   1.617  93.377
22.   4 GS    Blackforest Motorsports          2:06.155   0.085   1.702  93.314
23.  46 GS    Fall-Line Motorsports            2:06.457   0.302   2.004  93.091
24.  54 GS    Hyper Sport                      2:06.945   0.488   2.492  92.733
25.  72 GS    BGB Motorsports                  2:07.013   0.068   2.560  92.683
26.  96 GS    Turner Motorsport                2:07.055   0.042   2.602  92.653
27.   2 GS    Blackforest Motorsports          2:07.717   0.662   3.264  92.173
28.   3 GS    Blackforest Motorsports          2:08.386   0.669   3.933  91.692
29.  37 GS    JBS Racing                       2:08.611   0.225   4.158  91.532
30.  45 GS    Michael Baughman Racing          2:08.854   0.243   4.401  91.359
31.  88 GS    Ranger Sports Racing             2:09.599   0.745   5.146  90.834
32.  20 GS    Horsepower/Wright Motorsports    2:13.554   3.955   9.101  88.144
33.  78 GS    Kinetic Motorsports               No Time

Write a comment
Show comments
About this article
Series GRANDAM